Dover, Ohio
Current Conditions -  °F | °C
As of 6:53 AM on Thursday 18 Dec 2014 (Local Time) from KPHD Reporting Station
Overcast Overcast  
Wind Chill: 29°   Ceiling: 1900
Heat Index: 29°   Visibility: 10mi
Dew Point: 21°   Wind: 0mph
Humidity: 72%   Direction: NA
Pressure: 30.22"   Gusts: NA
Location:  40.52°N, 81.47°W
Report Text: KPHD 181153Z AUTO 00000KT 10SM OVC019 M02/M06 A3022 RMK AO2 SLP243 70001 T10171061 11011 21017 50000
Loading
Personal Weather Stations






























Interactive Weather Map New forecast layout! Learn more

10-Day Weather Forecast

Advertisements
Track Severe Weather on mobile